Dennistown, Maine
Current Conditions -  °F | °C
As of 1:20 PM on Thursday 18 Dec 2014 (Local Time) from CYSC Reporting Station
Light Snow Light Snow  
Wind Chill: 19°   Ceiling: 800
Heat Index: 28°   Visibility: 6mi
Dew Point: 27°   Wind: 10mph
Humidity: 93%   Direction: 290°WNW
Pressure: 29.75"   Gusts: NA
Location:  45.7142°N, 70.304°W
Report Text: CYSC 181820Z AUTO 29009KT 6SM -SN BKN008 OVC013 M02/M03 A2975 RMK SLP084
Loading
Personal Weather Stations






























Interactive Weather Map New forecast layout! Learn more

10-Day Weather Forecast

Advertisements
Track Severe Weather on mobile